createdAt,value
2018-06-22T00:00:38.657Z,1021.36
2018-06-22T00:01:38.605Z,1021.31
2018-06-22T00:02:38.676Z,1021.34
2018-06-22T00:03:38.559Z,1021.30
2018-06-22T00:04:38.583Z,1021.30
2018-06-22T00:05:38.512Z,1021.31
2018-06-22T00:06:38.595Z,1021.32
2018-06-22T00:07:38.453Z,1021.24
2018-06-22T00:08:38.511Z,1021.28
2018-06-22T00:09:38.412Z,1021.26
2018-06-22T00:10:38.418Z,1021.28
2018-06-22T00:11:38.359Z,1021.24
2018-06-22T00:12:38.434Z,1021.22
2018-06-22T00:13:38.308Z,1021.20
2018-06-22T00:14:38.347Z,1021.18
2018-06-22T00:15:38.256Z,1021.20
2018-06-22T00:16:38.340Z,1021.18
2018-06-22T00:17:38.205Z,1021.17
2018-06-22T00:18:38.269Z,1021.21
2018-06-22T00:19:38.167Z,1021.22
2018-06-22T00:20:38.181Z,1021.21
2018-06-22T00:21:38.118Z,1021.23
2018-06-22T00:22:38.196Z,1021.17
2018-06-22T00:23:38.047Z,1021.23
2018-06-22T00:24:38.110Z,1021.18
2018-06-22T00:25:38.011Z,1021.22
2018-06-22T00:26:38.025Z,1021.26
2018-06-22T00:27:37.958Z,1021.16
2018-06-22T00:28:38.035Z,1021.16
2018-06-22T00:29:37.894Z,1021.17
2018-06-22T00:30:37.947Z,1021.16
2018-06-22T00:31:37.860Z,1021.12
2018-06-22T00:32:37.860Z,1021.12
2018-06-22T00:33:37.795Z,1021.09
2018-06-22T00:34:37.876Z,1021.09
2018-06-22T00:35:37.760Z,1021.08
2018-06-22T00:36:37.788Z,1021.07
2018-06-22T00:37:37.713Z,1021.05
2018-06-22T00:38:37.799Z,1021.04
2018-06-22T00:39:37.649Z,1021.07
2018-06-22T00:40:37.711Z,1021.07
2018-06-22T00:41:37.611Z,1020.97
2018-06-22T00:42:37.628Z,1020.98
2018-06-22T00:43:37.555Z,1020.98
2018-06-22T00:44:37.639Z,1020.90
2018-06-22T00:45:37.511Z,1020.97
2018-06-22T00:46:37.552Z,1020.97
2018-06-22T00:47:37.456Z,1020.95
2018-06-22T00:48:37.466Z,1021.01
2018-06-22T00:49:37.399Z,1020.96
2018-06-22T00:50:37.498Z,1020.99
2018-06-22T00:51:37.355Z,1021.00
2018-06-22T00:52:37.388Z,1021.02
2018-06-22T00:53:37.307Z,1021.01
2018-06-22T00:54:37.302Z,1020.93
2018-06-22T00:55:37.252Z,1020.89
2018-06-22T00:56:37.314Z,1020.91
2018-06-22T00:57:37.200Z,1020.95
2018-06-22T00:58:37.227Z,1020.95
2018-06-22T00:59:37.148Z,1020.97
2018-06-22T01:00:37.238Z,1020.93
2018-06-22T01:01:37.096Z,1020.92
2018-06-22T01:02:37.150Z,1020.93
2018-06-22T01:03:37.062Z,1020.95
2018-06-22T01:04:37.061Z,1020.95
2018-06-22T01:05:36.999Z,1020.93
2018-06-22T01:06:37.093Z,1020.91
2018-06-22T01:07:36.956Z,1020.97
2018-06-22T01:08:36.986Z,1020.89
2018-06-22T01:09:36.907Z,1020.94
2018-06-22T01:10:36.898Z,1020.86
2018-06-22T01:11:36.848Z,1020.93
2018-06-22T01:12:36.911Z,1020.92
2018-06-22T01:13:36.799Z,1020.91
2018-06-22T01:14:36.823Z,1020.88
2018-06-22T01:15:36.751Z,1020.92
2018-06-22T01:16:36.737Z,1020.96
2018-06-22T01:17:36.698Z,1020.93
2018-06-22T01:18:36.751Z,1020.89
2018-06-22T01:19:36.650Z,1020.85
2018-06-22T01:20:36.662Z,1020.92
2018-06-22T01:21:36.596Z,1020.92
2018-06-22T01:22:36.675Z,1020.88
2018-06-22T01:23:36.548Z,1020.87
2018-06-22T01:24:36.588Z,1020.90
2018-06-22T01:25:36.505Z,1020.88
2018-06-22T01:26:36.503Z,1020.91
2018-06-22T01:27:36.444Z,1020.90
2018-06-22T01:28:36.512Z,1020.92
2018-06-22T01:29:36.398Z,1020.92
2018-06-22T01:30:36.432Z,1020.89
2018-06-22T01:31:36.342Z,1020.83
2018-06-22T01:32:36.341Z,1020.96
2018-06-22T01:33:36.290Z,1020.96
2018-06-22T01:34:36.350Z,1021.00
2018-06-22T01:35:36.247Z,1020.96
2018-06-22T01:36:36.261Z,1020.93
2018-06-22T01:37:36.192Z,1020.91
2018-06-22T01:38:36.281Z,1020.97
2018-06-22T01:39:36.145Z,1020.99
2018-06-22T01:40:36.191Z,1020.94
2018-06-22T01:41:36.091Z,1021.01
2018-06-22T01:42:36.101Z,1020.98
2018-06-22T01:43:36.040Z,1020.97
2018-06-22T01:44:36.127Z,1020.98
2018-06-22T01:45:35.992Z,1020.97
2018-06-22T01:46:36.030Z,1020.91
2018-06-22T01:47:35.940Z,1020.96
2018-06-22T01:48:35.939Z,1020.99
2018-06-22T01:49:35.885Z,1020.94
2018-06-22T01:50:35.955Z,1020.97
2018-06-22T01:51:35.839Z,1020.98
2018-06-22T01:52:35.868Z,1020.93
2018-06-22T01:53:35.787Z,1020.90
2018-06-22T01:54:35.881Z,1020.92
2018-06-22T01:55:35.738Z,1020.94
2018-06-22T01:56:35.792Z,1020.85
2018-06-22T01:57:35.688Z,1020.84
2018-06-22T01:58:35.703Z,1020.80
2018-06-22T01:59:35.644Z,1020.83
2018-06-22T02:00:35.722Z,1020.85
2018-06-22T02:01:35.595Z,1020.77
2018-06-22T02:02:35.628Z,1020.80
2018-06-22T02:03:35.551Z,1020.79
2018-06-22T02:04:35.530Z,1020.80
2018-06-22T02:05:35.481Z,1020.81
2018-06-22T02:06:35.556Z,1020.73
2018-06-22T02:07:35.433Z,1020.80
2018-06-22T02:08:35.466Z,1020.81
2018-06-22T02:09:35.380Z,1020.75
2018-06-22T02:10:35.377Z,1020.78
2018-06-22T02:11:35.330Z,1020.80
2018-06-22T02:12:35.393Z,1020.82
2018-06-22T02:13:35.277Z,1020.84
2018-06-22T02:14:35.321Z,1020.84
2018-06-22T02:15:35.231Z,1020.91
2018-06-22T02:16:35.333Z,1020.86
2018-06-22T02:17:35.178Z,1020.80
2018-06-22T02:18:35.228Z,1020.77
2018-06-22T02:19:35.142Z,1020.77
2018-06-22T02:20:35.138Z,1020.75
2018-06-22T02:21:35.077Z,1020.73
2018-06-22T02:22:35.152Z,1020.81
2018-06-22T02:23:35.030Z,1020.78
2018-06-22T02:24:35.065Z,1020.75
2018-06-22T02:25:34.974Z,1020.79
2018-06-22T02:26:34.976Z,1020.79
2018-06-22T02:27:34.942Z,1020.75
2018-06-22T02:28:34.990Z,1020.80
2018-06-22T02:29:34.870Z,1020.71
2018-06-22T02:30:34.907Z,1020.73
2018-06-22T02:31:34.822Z,1020.72
2018-06-22T02:32:34.828Z,1020.69
2018-06-22T02:33:34.770Z,1020.70
2018-06-22T02:34:34.833Z,1020.70
2018-06-22T02:35:34.716Z,1020.69
2018-06-22T02:36:34.743Z,1020.76
2018-06-22T02:37:34.661Z,1020.70
2018-06-22T02:38:34.656Z,1020.71
2018-06-22T02:39:34.624Z,1020.71
2018-06-22T02:40:34.669Z,1020.75
2018-06-22T02:41:34.565Z,1020.71
2018-06-22T02:42:34.580Z,1020.74
2018-06-22T02:43:34.509Z,1020.69
2018-06-22T02:44:34.620Z,1020.73
2018-06-22T02:45:34.461Z,1020.68
2018-06-22T02:46:34.514Z,1020.74
2018-06-22T02:47:34.412Z,1020.80
2018-06-22T02:48:34.428Z,1020.74
2018-06-22T02:49:34.357Z,1020.72
2018-06-22T02:50:34.463Z,1020.75
2018-06-22T02:51:34.308Z,1020.74
2018-06-22T02:52:34.361Z,1020.76
2018-06-22T02:53:34.254Z,1020.72
2018-06-22T02:54:34.263Z,1020.69
2018-06-22T02:55:34.206Z,1020.72
2018-06-22T02:56:34.275Z,1020.76
2018-06-22T02:57:34.155Z,1020.66
2018-06-22T02:58:34.185Z,1020.73
2018-06-22T02:59:34.102Z,1020.73
2018-06-22T03:00:34.200Z,1020.70
2018-06-22T03:01:34.059Z,1020.72
2018-06-22T03:02:34.111Z,1020.74
2018-06-22T03:03:33.999Z,1020.74
2018-06-22T03:04:34.022Z,1020.75
2018-06-22T03:05:33.944Z,1020.81
2018-06-22T03:06:34.036Z,1020.82
2018-06-22T03:07:33.895Z,1020.78
2018-06-22T03:08:33.940Z,1020.80
2018-06-22T03:09:33.853Z,1020.78
2018-06-22T03:10:33.858Z,1020.76
2018-06-22T03:11:33.799Z,1020.74
2018-06-22T03:12:33.877Z,1020.74
2018-06-22T03:13:33.741Z,1020.79
2018-06-22T03:14:33.783Z,1020.80
2018-06-22T03:15:33.688Z,1020.76
2018-06-22T03:16:33.796Z,1020.76
2018-06-22T03:17:33.643Z,1020.76
2018-06-22T03:18:33.707Z,1020.75
2018-06-22T03:19:33.595Z,1020.73
2018-06-22T03:20:33.623Z,1020.75
2018-06-22T03:21:33.537Z,1020.83
2018-06-22T03:22:33.533Z,1020.78
2018-06-22T03:23:33.491Z,1020.80
2018-06-22T03:24:33.545Z,1020.82
2018-06-22T03:25:33.455Z,1020.81
2018-06-22T03:26:33.456Z,1020.78
2018-06-22T03:27:33.384Z,1020.78
2018-06-22T03:28:33.469Z,1020.84
2018-06-22T03:29:33.331Z,1020.79
2018-06-22T03:30:33.400Z,1020.80
2018-06-22T03:31:33.287Z,1020.80
2018-06-22T03:32:33.293Z,1020.83
2018-06-22T03:33:33.234Z,1020.80
2018-06-22T03:34:33.311Z,1020.78
2018-06-22T03:35:33.178Z,1020.79
2018-06-22T03:36:33.218Z,1020.74
2018-06-22T03:37:33.124Z,1020.71
2018-06-22T03:38:33.134Z,1020.71
2018-06-22T03:39:33.131Z,1020.71
2018-06-22T03:40:33.149Z,1020.74
2018-06-22T03:41:33.030Z,1020.73
2018-06-22T03:42:33.057Z,1020.78
2018-06-22T03:43:32.970Z,1020.77
2018-06-22T03:44:32.971Z,1020.78
2018-06-22T03:45:32.924Z,1020.82
2018-06-22T03:46:32.985Z,1020.79
2018-06-22T03:47:32.870Z,1020.74
2018-06-22T03:48:32.904Z,1020.71
2018-06-22T03:49:32.817Z,1020.70
2018-06-22T03:50:32.804Z,1020.74
2018-06-22T03:51:32.765Z,1020.72
2018-06-22T03:52:32.823Z,1020.75
2018-06-22T03:53:32.713Z,1020.79
2018-06-22T03:54:32.731Z,1020.76
2018-06-22T03:55:32.665Z,1020.71
2018-06-22T03:56:33.671Z,1020.66
2018-06-22T03:57:32.614Z,1020.64
2018-06-22T03:58:32.654Z,1020.60
2018-06-22T03:59:32.567Z,1020.57
2018-06-22T04:00:32.566Z,1020.54
2018-06-22T04:01:32.508Z,1020.63
2018-06-22T04:02:32.585Z,1020.61
2018-06-22T04:03:32.465Z,1020.57
2018-06-22T04:04:32.501Z,1020.65
2018-06-22T04:05:32.405Z,1020.67
2018-06-22T04:06:32.409Z,1020.71
2018-06-22T04:07:32.361Z,1020.72
2018-06-22T04:08:32.425Z,1020.65
2018-06-22T04:09:32.301Z,1020.63
2018-06-22T04:10:32.334Z,1020.60
2018-06-22T04:11:32.251Z,1020.60
2018-06-22T04:12:32.247Z,1020.59
2018-06-22T04:13:32.215Z,1020.64
2018-06-22T04:14:32.263Z,1020.66
2018-06-22T04:15:32.146Z,1020.60
2018-06-22T04:16:32.177Z,1020.63
2018-06-22T04:17:32.101Z,1020.67
2018-06-22T04:18:32.079Z,1020.65
2018-06-22T04:19:32.048Z,1020.63
2018-06-22T04:20:32.100Z,1020.63
2018-06-22T04:21:31.990Z,1020.68
2018-06-22T04:22:32.008Z,1020.63
2018-06-22T04:23:31.940Z,1020.68
2018-06-22T04:24:32.078Z,1020.63
2018-06-22T04:25:31.889Z,1020.61
2018-06-22T04:26:31.936Z,1020.63
2018-06-22T04:27:31.840Z,1020.63
2018-06-22T04:28:31.859Z,1020.56
2018-06-22T04:29:31.794Z,1020.57
2018-06-22T04:30:31.861Z,1020.59
2018-06-22T04:31:31.738Z,1020.60
2018-06-22T04:32:31.772Z,1020.61
2018-06-22T04:33:31.686Z,1020.58
2018-06-22T04:34:31.686Z,1020.58
2018-06-22T04:35:31.631Z,1020.61
2018-06-22T04:36:31.698Z,1020.61
2018-06-22T04:37:31.573Z,1020.67
2018-06-22T04:38:31.617Z,1020.66
2018-06-22T04:39:31.530Z,1020.66
2018-06-22T04:40:31.521Z,1020.72
2018-06-22T04:41:31.480Z,1020.65
2018-06-22T04:42:31.536Z,1020.71
2018-06-22T04:43:31.426Z,1020.66
2018-06-22T04:44:31.446Z,1020.63
2018-06-22T04:45:31.382Z,1020.59
2018-06-22T04:46:31.460Z,1020.65
2018-06-22T04:47:31.364Z,1020.64
2018-06-22T04:48:31.378Z,1020.71
2018-06-22T04:49:31.277Z,1020.66
2018-06-22T04:50:31.286Z,1020.72
2018-06-22T04:51:31.228Z,1020.70
2018-06-22T04:52:31.302Z,1020.71
2018-06-22T04:53:31.170Z,1020.72
2018-06-22T04:54:31.212Z,1020.75
2018-06-22T04:55:31.122Z,1020.71
2018-06-22T04:56:31.126Z,1020.78
2018-06-22T04:57:31.074Z,1020.75
2018-06-22T04:58:31.140Z,1020.76
2018-06-22T04:59:31.020Z,1020.69
2018-06-22T05:00:31.048Z,1020.69
2018-06-22T05:01:30.971Z,1020.73
2018-06-22T05:02:30.962Z,1020.69
2018-06-22T05:03:30.983Z,1020.64
2018-06-22T05:04:30.979Z,1020.75
2018-06-22T05:05:30.862Z,1020.68
2018-06-22T05:06:30.889Z,1020.75
2018-06-22T05:07:30.823Z,1020.78
2018-06-22T05:08:30.904Z,1020.74
2018-06-22T05:09:30.767Z,1020.74
2018-06-22T05:10:30.817Z,1020.81
2018-06-22T05:11:30.717Z,1020.75
2018-06-22T05:12:30.738Z,1020.79
2018-06-22T05:13:30.665Z,1020.77
2018-06-22T05:14:30.740Z,1020.68
2018-06-22T05:15:30.620Z,1020.80
2018-06-22T05:16:30.653Z,1020.79
2018-06-22T05:17:30.569Z,1020.80
2018-06-22T05:18:30.584Z,1020.73
2018-06-22T05:19:30.522Z,1020.79
2018-06-22T05:20:30.579Z,1020.87
2018-06-22T05:21:30.464Z,1020.82
2018-06-22T05:22:30.488Z,1020.84
2018-06-22T05:23:30.421Z,1020.79
2018-06-22T05:24:30.401Z,1020.94
2018-06-22T05:25:30.390Z,1020.77
2018-06-22T05:26:30.415Z,1020.91
2018-06-22T05:27:30.312Z,1020.83
2018-06-22T05:28:30.330Z,1020.84
2018-06-22T05:29:30.260Z,1020.79
2018-06-22T05:30:30.343Z,1020.80
2018-06-22T05:31:30.215Z,1020.70
2018-06-22T05:32:30.259Z,1020.74
2018-06-22T05:33:30.165Z,1020.71
2018-06-22T05:34:30.165Z,1020.76
2018-06-22T05:35:30.117Z,1020.67
2018-06-22T05:36:30.184Z,1020.72
2018-06-22T05:37:30.065Z,1020.73
2018-06-22T05:38:30.092Z,1020.81
2018-06-22T05:39:30.018Z,1020.74
2018-06-22T05:40:30.107Z,1020.79
2018-06-22T05:41:29.978Z,1020.81
2018-06-22T05:42:30.018Z,1020.83
2018-06-22T05:43:29.909Z,1020.77
2018-06-22T05:44:29.926Z,1020.82
2018-06-22T05:45:29.890Z,1020.93
2018-06-22T05:46:29.947Z,1020.85
2018-06-22T05:47:29.816Z,1020.81
2018-06-22T05:48:29.856Z,1020.81
2018-06-22T05:49:29.774Z,1020.79
2018-06-22T05:50:29.768Z,1020.81
2018-06-22T05:51:29.715Z,1020.87
2018-06-22T05:52:29.781Z,1020.85
2018-06-22T05:53:29.667Z,1020.94
2018-06-22T05:54:29.696Z,1020.95
2018-06-22T05:55:29.618Z,1020.89
2018-06-22T05:56:29.747Z,1020.93
2018-06-22T05:57:29.575Z,1020.92
2018-06-22T05:58:29.623Z,1020.90
2018-06-22T05:59:29.519Z,1020.95
2018-06-22T06:00:29.538Z,1020.91
2018-06-22T06:01:29.471Z,1020.93
2018-06-22T06:02:29.547Z,1021.01
2018-06-22T06:03:29.431Z,1020.96
2018-06-22T06:04:29.458Z,1020.96
2018-06-22T06:05:29.375Z,1021.00
2018-06-22T06:06:29.370Z,1021.01
2018-06-22T06:07:29.321Z,1021.06
2018-06-22T06:08:29.384Z,1021.02
2018-06-22T06:09:29.273Z,1021.04
2018-06-22T06:10:29.296Z,1021.03
2018-06-22T06:11:29.226Z,1021.11
2018-06-22T06:12:29.353Z,1020.98
2018-06-22T06:13:29.170Z,1020.99
2018-06-22T06:14:29.223Z,1021.05
2018-06-22T06:15:29.125Z,1021.05
2018-06-22T06:16:29.134Z,1021.04
2018-06-22T06:17:29.072Z,1021.08
2018-06-22T06:18:29.151Z,1021.05
2018-06-22T06:19:29.026Z,1021.08
2018-06-22T06:20:29.059Z,1021.04
2018-06-22T06:21:28.974Z,1021.01
2018-06-22T06:22:28.969Z,1021.08
2018-06-22T06:23:28.930Z,1021.02
2018-06-22T06:24:28.984Z,1021.05
2018-06-22T06:25:28.872Z,1021.08
2018-06-22T06:26:28.894Z,1021.05
2018-06-22T06:27:28.827Z,1021.04
2018-06-22T06:28:28.911Z,1021.04
2018-06-22T06:29:28.778Z,1021.02
2018-06-22T06:30:28.820Z,1021.08
2018-06-22T06:31:28.733Z,1021.02
2018-06-22T06:32:28.732Z,1021.05
2018-06-22T06:33:28.680Z,1021.06
2018-06-22T06:34:28.747Z,1021.09
2018-06-22T06:35:28.630Z,1021.12
2018-06-22T06:36:28.659Z,1021.16
2018-06-22T06:37:28.587Z,1021.09
2018-06-22T06:38:28.672Z,1021.12
2018-06-22T06:39:28.534Z,1021.11
2018-06-22T06:40:28.588Z,1021.11
2018-06-22T06:41:28.484Z,1021.20
2018-06-22T06:42:28.494Z,1021.21
2018-06-22T06:43:28.439Z,1021.19
2018-06-22T06:44:28.511Z,1021.19
2018-06-22T06:45:28.388Z,1021.16
2018-06-22T06:46:28.422Z,1021.26
2018-06-22T06:47:28.339Z,1021.27
2018-06-22T06:48:28.331Z,1021.23
2018-06-22T06:49:28.341Z,1021.30
2018-06-22T06:50:28.348Z,1021.24
2018-06-22T06:51:28.245Z,1021.27
2018-06-22T06:52:28.257Z,1021.26
2018-06-22T06:53:28.193Z,1021.28
2018-06-22T06:54:28.272Z,1021.28
2018-06-22T06:55:28.144Z,1021.29
2018-06-22T06:56:28.189Z,1021.21
2018-06-22T06:57:28.095Z,1021.21
2018-06-22T06:58:28.100Z,1021.26
2018-06-22T06:59:28.050Z,1021.23
2018-06-22T07:00:28.113Z,1021.19
2018-06-22T07:01:27.998Z,1021.24
2018-06-22T07:02:28.076Z,1021.23
2018-06-22T07:03:27.951Z,1021.22
2018-06-22T07:04:28.041Z,1021.28
2018-06-22T07:05:27.940Z,1021.31
2018-06-22T07:06:27.950Z,1021.35
2018-06-22T07:07:27.858Z,1021.30
2018-06-22T07:08:27.890Z,1021.29
2018-06-22T07:09:27.807Z,1021.33
2018-06-22T07:10:27.875Z,1021.32
2018-06-22T07:11:27.757Z,1021.33
2018-06-22T07:12:27.791Z,1021.38
2018-06-22T07:13:27.727Z,1021.36
2018-06-22T07:14:27.853Z,1021.37
2018-06-22T07:15:27.667Z,1021.40
2018-06-22T07:16:27.714Z,1021.44
2018-06-22T07:17:27.618Z,1021.46
2018-06-22T07:18:27.626Z,1021.45
2018-06-22T07:19:27.569Z,1021.46
2018-06-22T07:20:27.640Z,1021.49
2018-06-22T07:21:27.520Z,1021.43
2018-06-22T07:22:27.552Z,1021.44
2018-06-22T07:23:27.498Z,1021.51
2018-06-22T07:24:27.569Z,1021.53
2018-06-22T07:25:27.430Z,1021.50
2018-06-22T07:26:27.477Z,1021.53
2018-06-22T07:27:27.381Z,1021.56
2018-06-22T07:28:27.395Z,1021.54
2018-06-22T07:29:27.326Z,1021.49
2018-06-22T07:30:27.399Z,1021.51
2018-06-22T07:31:27.281Z,1021.53
2018-06-22T07:32:27.312Z,1021.60
2018-06-22T07:33:27.236Z,1021.59
2018-06-22T07:34:27.327Z,1021.57
2018-06-22T07:35:27.191Z,1021.66
2018-06-22T07:36:27.238Z,1021.57
2018-06-22T07:37:27.141Z,1021.69
2018-06-22T07:38:27.152Z,1021.64
2018-06-22T07:39:27.089Z,1021.63
2018-06-22T07:40:27.163Z,1021.63
2018-06-22T07:41:27.048Z,1021.67
2018-06-22T07:42:27.080Z,1021.61
2018-06-22T07:43:27.000Z,1021.58
2018-06-22T07:44:27.095Z,1021.62
2018-06-22T07:45:26.966Z,1021.70
2018-06-22T07:46:27.003Z,1021.65
2018-06-22T07:47:26.904Z,1021.63
2018-06-22T07:48:26.913Z,1021.70
2018-06-22T07:49:26.859Z,1021.65
2018-06-22T07:50:26.926Z,1021.69
2018-06-22T07:51:26.812Z,1021.70
2018-06-22T07:52:26.841Z,1021.69
2018-06-22T07:53:26.767Z,1021.73
2018-06-22T07:54:26.861Z,1021.76
2018-06-22T07:55:26.718Z,1021.78
2018-06-22T07:56:26.766Z,1021.77
2018-06-22T07:57:26.675Z,1021.73
2018-06-22T07:58:26.679Z,1021.76
2018-06-22T07:59:26.622Z,1021.77
2018-06-22T08:00:26.692Z,1021.72
2018-06-22T08:01:26.576Z,1021.71
2018-06-22T08:02:26.603Z,1021.72
2018-06-22T08:03:26.533Z,1021.78
2018-06-22T08:04:26.616Z,1021.80
2018-06-22T08:05:26.483Z,1021.78
2018-06-22T08:06:26.531Z,1021.81
2018-06-22T08:07:26.442Z,1021.84
2018-06-22T08:08:26.443Z,1021.81
2018-06-22T08:09:26.391Z,1021.94
2018-06-22T08:10:26.457Z,1022.03
2018-06-22T08:11:26.358Z,1021.87
2018-06-22T08:12:26.365Z,1021.96
2018-06-22T08:13:26.298Z,1021.91
2018-06-22T08:14:26.381Z,1021.93
2018-06-22T08:15:26.252Z,1021.94
2018-06-22T08:16:26.294Z,1021.85
2018-06-22T08:17:26.205Z,1021.92
2018-06-22T08:18:26.212Z,1021.92
2018-06-22T08:19:26.164Z,1021.96
2018-06-22T08:20:26.217Z,1021.96
2018-06-22T08:21:26.117Z,1021.96
2018-06-22T08:22:26.128Z,1022.00
2018-06-22T08:23:26.066Z,1021.88
2018-06-22T08:24:26.147Z,1022.06
2018-06-22T08:25:26.019Z,1022.02
2018-06-22T08:26:26.056Z,1022.07
2018-06-22T08:27:25.973Z,1021.97
2018-06-22T08:28:25.967Z,1022.06
2018-06-22T08:29:25.998Z,1021.96
2018-06-22T08:30:25.922Z,1022.07
2018-06-22T08:31:25.980Z,1022.02
2018-06-22T08:32:25.883Z,1022.04
2018-06-22T08:33:25.898Z,1022.06
2018-06-22T08:34:25.819Z,1022.05
2018-06-22T08:35:25.801Z,1022.12
2018-06-22T08:36:25.771Z,1022.03
2018-06-22T08:37:25.873Z,1022.08
2018-06-22T08:38:25.723Z,1022.09
2018-06-22T08:39:25.737Z,1022.13
2018-06-22T08:40:25.702Z,1022.18
2018-06-22T08:41:25.797Z,1022.17
2018-06-22T08:42:25.671Z,1022.17
2018-06-22T08:43:25.721Z,1022.16
2018-06-22T08:44:25.623Z,1022.14
2018-06-22T08:45:25.603Z,1022.18
2018-06-22T08:46:25.552Z,1022.27
2018-06-22T08:47:25.639Z,1022.20
2018-06-22T08:48:25.520Z,1022.26
2018-06-22T08:49:25.541Z,1022.17
2018-06-22T08:50:25.616Z,1022.26
2018-06-22T08:51:25.527Z,1022.29
2018-06-22T08:52:25.408Z,1022.26
2018-06-22T08:53:25.461Z,1022.17
2018-06-22T08:54:25.351Z,1022.31
2018-06-22T08:55:25.464Z,1022.33
2018-06-22T08:56:25.309Z,1022.34
2018-06-22T08:57:25.409Z,1022.34
2018-06-22T08:58:25.277Z,1022.25
2018-06-22T08:59:25.269Z,1022.29
2018-06-22T09:00:25.216Z,1022.27
2018-06-22T09:01:25.314Z,1022.34
2018-06-22T09:02:25.177Z,1022.29
2018-06-22T09:03:25.193Z,1022.32
2018-06-22T09:04:25.126Z,1022.45
2018-06-22T09:05:25.210Z,1022.28
2018-06-22T09:06:25.081Z,1022.31
2018-06-22T09:07:25.119Z,1022.23
2018-06-22T09:08:25.034Z,1022.39
2018-06-22T09:09:25.031Z,1022.34
2018-06-22T09:10:24.988Z,1022.36
2018-06-22T09:11:25.045Z,1022.47
2018-06-22T09:12:24.952Z,1022.41
2018-06-22T09:13:24.952Z,1022.44
2018-06-22T09:14:24.939Z,1022.70
2018-06-22T09:15:24.969Z,1022.41
2018-06-22T09:16:24.853Z,1022.41
2018-06-22T09:17:24.881Z,1022.44
2018-06-22T09:18:24.807Z,1022.31
2018-06-22T09:19:24.900Z,1022.34
2018-06-22T09:20:24.764Z,1022.38
2018-06-22T09:21:24.803Z,1022.43
2018-06-22T09:22:24.722Z,1022.42
2018-06-22T09:23:24.717Z,1022.38
2018-06-22T09:24:24.686Z,1022.39
2018-06-22T09:25:24.758Z,1022.46
2018-06-22T09:26:24.631Z,1022.50
2018-06-22T09:27:24.644Z,1022.46
2018-06-22T09:28:24.590Z,1022.50
2018-06-22T09:29:24.663Z,1022.50
2018-06-22T09:30:24.541Z,1022.48
2018-06-22T09:31:24.591Z,1022.50
2018-06-22T09:32:24.498Z,1022.49
2018-06-22T09:33:24.586Z,1022.46
2018-06-22T09:34:24.456Z,1022.46
2018-06-22T09:35:24.497Z,1022.51
2018-06-22T09:36:24.411Z,1022.45
2018-06-22T09:37:24.415Z,1022.54
2018-06-22T09:38:24.370Z,1022.52
2018-06-22T09:39:24.426Z,1022.49
2018-06-22T09:40:24.321Z,1022.54
2018-06-22T09:41:24.341Z,1022.61
2018-06-22T09:42:24.280Z,1022.48
2018-06-22T09:43:24.355Z,1022.45
2018-06-22T09:44:24.233Z,1022.56
2018-06-22T09:45:24.259Z,1022.62
2018-06-22T09:46:24.193Z,1022.61
2018-06-22T09:47:24.278Z,1022.68
2018-06-22T09:48:24.240Z,1022.65
2018-06-22T09:49:24.190Z,1022.57
2018-06-22T09:50:24.097Z,1022.64
2018-06-22T09:51:24.095Z,1022.62
2018-06-22T09:52:24.061Z,1022.70
2018-06-22T09:53:24.115Z,1022.61
2018-06-22T09:54:24.019Z,1022.60
2018-06-22T09:55:24.041Z,1022.62
2018-06-22T09:56:23.972Z,1022.61
2018-06-22T09:57:24.071Z,1022.62
2018-06-22T09:58:23.930Z,1022.57
2018-06-22T09:59:23.949Z,1022.63
2018-06-22T10:00:23.888Z,1022.73
2018-06-22T10:01:23.968Z,1022.64
2018-06-22T10:02:23.845Z,1022.69
2018-06-22T10:03:23.880Z,1022.75
2018-06-22T10:04:23.834Z,1022.65
2018-06-22T10:05:23.896Z,1022.76
2018-06-22T10:06:23.758Z,1022.62
2018-06-22T10:07:23.805Z,1022.83
2018-06-22T10:08:23.711Z,1022.74
2018-06-22T10:09:23.717Z,1022.70
2018-06-22T10:10:23.675Z,1022.77
2018-06-22T10:11:23.743Z,1022.86
2018-06-22T10:12:23.635Z,1022.79
2018-06-22T10:13:23.635Z,1022.95
2018-06-22T10:14:23.590Z,1022.88
2018-06-22T10:15:23.656Z,1022.73
2018-06-22T10:16:23.557Z,1022.67
2018-06-22T10:17:23.575Z,1022.74
2018-06-22T10:18:23.507Z,1022.78
2018-06-22T10:19:23.576Z,1022.83
2018-06-22T10:20:23.456Z,1022.74
2018-06-22T10:21:23.493Z,1022.74
2018-06-22T10:22:23.417Z,1022.72
2018-06-22T10:23:23.500Z,1022.80
2018-06-22T10:24:23.372Z,1022.72
2018-06-22T10:25:23.413Z,1022.63
2018-06-22T10:26:23.326Z,1022.59
2018-06-22T10:27:23.359Z,1022.65
2018-06-22T10:28:23.288Z,1022.64
2018-06-22T10:29:23.340Z,1022.60
2018-06-22T10:30:23.245Z,1022.55
2018-06-22T10:31:23.254Z,1022.55
2018-06-22T10:32:23.206Z,1022.50
2018-06-22T10:33:23.272Z,1022.57
2018-06-22T10:34:23.170Z,1022.56
2018-06-22T10:35:23.181Z,1022.69
2018-06-22T10:36:23.119Z,1022.57
2018-06-22T10:37:23.195Z,1022.63
2018-06-22T10:38:23.075Z,1022.61
2018-06-22T10:39:23.104Z,1022.54
2018-06-22T10:40:23.035Z,1022.54
2018-06-22T10:41:23.119Z,1022.52
2018-06-22T10:42:22.991Z,1022.60
2018-06-22T10:43:23.030Z,1022.58
2018-06-22T10:44:22.949Z,1022.55
2018-06-22T10:45:22.941Z,1022.59
2018-06-22T10:46:22.909Z,1022.57
2018-06-22T10:47:22.956Z,1022.53
2018-06-22T10:48:22.864Z,1022.57
2018-06-22T10:49:22.883Z,1022.54
2018-06-22T10:50:22.820Z,1022.53
2018-06-22T10:51:22.882Z,1022.58
2018-06-22T10:52:22.782Z,1022.65
2018-06-22T10:53:22.794Z,1022.63
2018-06-22T10:54:22.739Z,1022.78
2018-06-22T10:55:22.808Z,1022.67
2018-06-22T10:56:22.699Z,1022.76
2018-06-22T10:57:22.720Z,1022.80
2018-06-22T10:58:22.650Z,1022.74
2018-06-22T10:59:22.735Z,1022.77
2018-06-22T11:00:22.608Z,1022.80
2018-06-22T11:01:22.651Z,1022.70
2018-06-22T11:02:22.564Z,1022.73
2018-06-22T11:03:22.557Z,1022.79
2018-06-22T11:04:22.523Z,1022.80
2018-06-22T11:05:22.571Z,1022.77
2018-06-22T11:06:22.479Z,1022.69
2018-06-22T11:07:22.481Z,1022.67
2018-06-22T11:08:22.441Z,1022.77
2018-06-22T11:09:22.499Z,1022.76
2018-06-22T11:10:22.404Z,1022.73
2018-06-22T11:11:22.410Z,1022.68
2018-06-22T11:12:22.353Z,1022.64
2018-06-22T11:13:22.423Z,1022.69
2018-06-22T11:14:22.318Z,1022.76
2018-06-22T11:15:22.331Z,1022.82
2018-06-22T11:16:22.274Z,1022.81
2018-06-22T11:17:22.464Z,1022.77
2018-06-22T11:18:22.278Z,1022.84
2018-06-22T11:19:22.261Z,1022.80
2018-06-22T11:20:22.188Z,1022.79
2018-06-22T11:21:22.357Z,1022.84
2018-06-22T11:22:22.149Z,1022.91
2018-06-22T11:23:22.185Z,1022.85
2018-06-22T11:24:22.105Z,1022.81
2018-06-22T11:25:22.096Z,1022.89
2018-06-22T11:26:22.060Z,1022.86
2018-06-22T11:27:22.125Z,1022.70
2018-06-22T11:28:22.023Z,1022.61
2018-06-22T11:29:22.026Z,1022.73
2018-06-22T11:30:21.981Z,1022.81
2018-06-22T11:31:22.037Z,1022.80
2018-06-22T11:32:21.944Z,1022.86
2018-06-22T11:33:21.951Z,1022.67
2018-06-22T11:34:21.895Z,1022.72
2018-06-22T11:35:21.969Z,1022.68
2018-06-22T11:36:21.870Z,1022.63
2018-06-22T11:37:21.881Z,1022.76
2018-06-22T11:38:21.812Z,1022.66
2018-06-22T11:39:21.888Z,1022.69
2018-06-22T11:40:21.777Z,1022.80
2018-06-22T11:41:21.906Z,1022.78
2018-06-22T11:42:21.729Z,1022.94
2018-06-22T11:43:21.813Z,1022.91
2018-06-22T11:44:21.701Z,1022.82
2018-06-22T11:45:21.728Z,1022.75
2018-06-22T11:46:21.648Z,1022.76
2018-06-22T11:47:21.636Z,1022.81
2018-06-22T11:48:21.606Z,1022.86
2018-06-22T11:49:21.655Z,1022.77
2018-06-22T11:50:21.582Z,1022.70
2018-06-22T11:51:21.565Z,1022.87
2018-06-22T11:52:21.524Z,1022.75
2018-06-22T11:53:21.580Z,1022.68
2018-06-22T11:54:21.487Z,1022.75
2018-06-22T11:55:21.493Z,1022.81
2018-06-22T11:56:21.442Z,1022.75
2018-06-22T11:57:21.503Z,1022.74
2018-06-22T11:58:21.405Z,1022.74
2018-06-22T11:59:21.417Z,1022.70
2018-06-22T12:00:21.369Z,1022.77
2018-06-22T12:01:21.433Z,1022.64
2018-06-22T12:02:21.326Z,1022.78
2018-06-22T12:03:21.345Z,1022.86
2018-06-22T12:04:21.294Z,1022.74
2018-06-22T12:05:21.357Z,1022.75